Terminal Aerodrome Forecast
Issued by NWS Wilmington, OH

Current Version | Previous Version | Text Only | Print | Product List | Glossary Off
Versions: 1 2 3 4 5 6 7 8 9 10 11 12 13 14 15 16 17 18 19 20 21 22 23 24 25 26 27 28

000
FTUS41 KILN 241400 AAD
TAFDAY
TAF AMD
KDAY 241444Z 2415/2512 22020G30KT 3SM -RA BKN035 OVC060
      TEMPO 2415/2416 BKN025
     FM241600 23020G30KT P6SM OVC025
     FM250300 23013G20KT P6SM SCT025
      TEMPO 2509/2512 BKN025=

USA.gov is the U.S. government's official web portal to all federal, state and local government web resources and services.